Time;durP1;ratioP1;P1;durP2;ratioP2;P2;SDS_P1;SDS_P2;PMS_P1;PMS_P2;Temp;Humidity;BMP_temperature;BMP_pressure;BME280_temperature;BME280_humidity;BME280_pressure;Samples;Min_cycle;Max_cycle;Signal;HPM_P1;HPM_P2
2024/04/06 00:01:55;;;;;;;;;;;11.00;99.90;;;;;;5038170;28;19920;-77
2024/04/06 00:04:21;;;;;;;;;;;11.10;99.90;;;;;;5039974;28;19917;-76
2024/04/06 00:06:47;;;;;;;;;;;11.10;99.90;;;;;;5042408;28;19925;-76
2024/04/06 00:09:13;;;;;;;;;;;11.00;99.90;;;;;;5041950;28;19928;-76
2024/04/06 00:11:38;;;;;;;;;;;10.90;99.90;;;;;;5043489;28;20399;-76
2024/04/06 00:14:04;;;;;;;;;;;10.90;99.90;;;;;;5040795;28;19947;-76
2024/04/06 00:16:30;;;;;;;;;;;10.90;99.90;;;;;;5046571;28;20027;-76
2024/04/06 00:18:55;;;;;;;;;;;10.80;99.90;;;;;;5047941;28;19924;-75
2024/04/06 00:21:21;;;;;;;;;;;10.80;99.90;;;;;;5045410;28;19931;-76
2024/04/06 00:23:46;;;;;;;;;;;10.80;99.90;;;;;;5044130;28;20001;-76
2024/04/06 00:26:12;;;;;;;;;;;10.80;99.90;;;;;;5041769;28;19921;-76
2024/04/06 00:28:37;;;;;;;;;;;10.80;99.90;;;;;;5043382;28;21203;-75
2024/04/06 00:31:03;;;;;;;;;;;10.80;99.90;;;;;;5042607;28;19927;-76
2024/04/06 00:33:29;;;;;;;;;;;10.70;99.90;;;;;;5041665;28;20033;-76
2024/04/06 00:35:54;;;;;;;;;;;10.70;99.90;;;;;;5045709;28;19920;-75
2024/04/06 00:38:20;;;;;;;;;;;10.70;99.90;;;;;;5043073;28;20034;-75
2024/04/06 00:40:45;;;;;;;;;;;10.70;99.90;;;;;;5045887;28;19966;-75
2024/04/06 00:43:11;;;;;;;;;;;10.70;99.90;;;;;;5031281;28;19925;-75
2024/04/06 00:45:37;;;;;;;;;;;10.70;99.90;;;;;;5043376;28;19931;-75
2024/04/06 00:48:03;;;;;;;;;;;10.80;99.90;;;;;;5046151;28;20362;-75
2024/04/06 00:50:29;;;;;;;;;;;10.80;99.90;;;;;;5045734;28;19952;-76
2024/04/06 00:52:55;;;;;;;;;;;10.80;99.90;;;;;;5062850;28;19976;-76
2024/04/06 00:55:20;;;;;;;;;;;10.90;99.90;;;;;;5041010;28;20330;-76
2024/04/06 00:57:46;;;;;;;;;;;11.00;99.90;;;;;;5046868;28;20008;-76
2024/04/06 01:00:12;;;;;;;;;;;11.10;99.90;;;;;;5045951;28;20428;-76
2024/04/06 01:02:37;;;;;;;;;;;11.10;99.90;;;;;;5044149;28;19940;-88
2024/04/06 01:05:03;;;;;;;;;;;11.20;99.90;;;;;;5045336;28;20287;-88
2024/04/06 01:07:29;;;;;;;;;;;11.20;99.90;;;;;;5030197;28;20302;-87
2024/04/06 01:09:54;;;;;;;;;;;11.20;99.90;;;;;;5061718;28;19920;-85
2024/04/06 01:12:20;;;;;;;;;;;11.20;99.90;;;;;;5045577;28;19928;-88
2024/04/06 01:14:45;;;;;;;;;;;11.20;99.90;;;;;;5046378;28;19929;-86
2024/04/06 01:17:11;;;;;;;;;;;11.20;99.90;;;;;;5044244;28;20443;-87
2024/04/06 01:19:36;;;;;;;;;;;11.20;99.90;;;;;;5030150;28;19927;-87
2024/04/06 01:22:02;;;;;;;;;;;11.30;99.90;;;;;;5046413;28;19962;-87
2024/04/06 01:24:28;;;;;;;;;;;11.30;99.90;;;;;;5046438;28;19916;-87
2024/04/06 01:26:54;;;;;;;;;;;11.30;99.90;;;;;;5045635;28;20011;-87
2024/04/06 01:29:21;;;;;;;;;;;11.30;99.90;;;;;;5044661;28;20013;-86
2024/04/06 01:31:47;;;;;;;;;;;11.30;99.90;;;;;;5042625;28;19924;-88
2024/04/06 01:34:13;;;;;;;;;;;11.30;99.90;;;;;;5046101;28;19973;-88
2024/04/06 01:36:40;;;;;;;;;;;11.30;99.90;;;;;;5047538;28;20314;-88
2024/04/06 01:39:07;;;;;;;;;;;11.30;99.90;;;;;;5041188;28;20380;-87
2024/04/06 01:41:37;;;;;;;;;;;11.30;99.90;;;;;;5040434;28;20015;-88
2024/04/06 01:44:03;;;;;;;;;;;11.20;99.90;;;;;;5043678;28;20016;-88
2024/04/06 01:46:28;;;;;;;;;;;11.20;99.90;;;;;;5046801;28;19920;-88
2024/04/06 01:48:54;;;;;;;;;;;11.20;99.90;;;;;;5045682;28;19943;-87
2024/04/06 01:51:20;;;;;;;;;;;11.10;99.90;;;;;;5048568;28;19925;-87
2024/04/06 01:53:45;;;;;;;;;;;11.10;99.90;;;;;;5053920;28;19924;-87
2024/04/06 01:56:11;;;;;;;;;;;11.10;99.90;;;;;;5057184;28;19928;-87
2024/04/06 01:58:37;;;;;;;;;;;11.00;99.90;;;;;;5052108;28;19979;-88
2024/04/06 02:01:02;;;;;;;;;;;11.00;99.90;;;;;;5043831;28;19925;-87
2024/04/06 02:03:28;;;;;;;;;;;10.90;99.90;;;;;;5043639;28;20004;-87
2024/04/06 02:05:56;;;;;;;;;;;10.90;99.90;;;;;;5045261;28;20007;-86
2024/04/06 02:08:25;;;;;;;;;;;10.80;99.90;;;;;;5045314;28;20271;-87
2024/04/06 02:10:51;;;;;;;;;;;10.80;99.90;;;;;;5047841;28;19927;-87
2024/04/06 02:13:16;;;;;;;;;;;10.70;99.90;;;;;;5051735;28;19920;-76
2024/04/06 02:15:43;;;;;;;;;;;10.70;99.90;;;;;;5033220;28;19924;-76
2024/04/06 02:18:09;;;;;;;;;;;10.60;99.90;;;;;;5047889;28;20665;-76
2024/04/06 02:20:34;;;;;;;;;;;10.60;99.90;;;;;;5048246;28;20016;-75
2024/04/06 02:23:00;;;;;;;;;;;10.60;99.90;;;;;;5048494;28;19931;-75
2024/04/06 02:25:26;;;;;;;;;;;10.60;99.90;;;;;;5050716;28;19916;-75
2024/04/06 02:27:51;;;;;;;;;;;10.70;99.90;;;;;;5049226;28;19925;-76
2024/04/06 02:30:17;;;;;;;;;;;10.70;99.90;;;;;;5048454;28;20382;-75
2024/04/06 02:32:43;;;;;;;;;;;10.80;99.90;;;;;;5047505;28;19928;-75
2024/04/06 02:35:09;;;;;;;;;;;10.90;99.90;;;;;;5048018;28;20272;-76
2024/04/06 02:37:34;;;;;;;;;;;10.90;99.90;;;;;;5046008;28;19916;-76
2024/04/06 02:40:00;;;;;;;;;;;10.90;99.90;;;;;;5045891;28;19920;-76
2024/04/06 02:42:25;;;;;;;;;;;10.90;99.90;;;;;;5047432;28;19927;-77
2024/04/06 02:44:51;;;;;;;;;;;11.00;99.90;;;;;;5033205;28;19928;-76
2024/04/06 02:47:17;;;;;;;;;;;11.00;99.90;;;;;;5048173;28;19925;-76
2024/04/06 02:49:42;;;;;;;;;;;11.00;99.90;;;;;;5051254;28;20023;-76
2024/04/06 02:52:08;;;;;;;;;;;11.10;99.90;;;;;;5031647;28;19924;-76
2024/04/06 02:54:33;;;;;;;;;;;11.00;99.90;;;;;;5031025;28;19921;-76
2024/04/06 02:56:59;;;;;;;;;;;11.00;99.90;;;;;;5047556;28;19916;-76
2024/04/06 02:59:26;;;;;;;;;;;11.00;99.90;;;;;;5032889;28;19931;-76
2024/04/06 03:01:52;;;;;;;;;;;11.00;99.90;;;;;;5048086;28;19921;-77
2024/04/06 03:04:17;;;;;;;;;;;11.00;99.90;;;;;;5048304;28;19974;-77
2024/04/06 03:06:43;;;;;;;;;;;11.00;99.90;;;;;;5047945;28;20354;-77
2024/04/06 03:09:09;;;;;;;;;;;10.90;99.90;;;;;;5049108;28;20007;-76
2024/04/06 03:11:34;;;;;;;;;;;10.90;99.90;;;;;;5046916;28;20228;-76
2024/04/06 03:14:00;;;;;;;;;;;10.90;99.90;;;;;;5045085;28;19935;-74
2024/04/06 03:16:26;;;;;;;;;;;10.90;99.90;;;;;;5044355;28;19916;-76
2024/04/06 03:18:52;;;;;;;;;;;10.90;99.90;;;;;;5046088;28;19921;-77
2024/04/06 03:21:17;;;;;;;;;;;10.90;99.90;;;;;;5043466;28;19932;-76
2024/04/06 03:23:43;;;;;;;;;;;10.90;99.90;;;;;;5044285;28;19931;-75
2024/04/06 03:26:08;;;;;;;;;;;10.90;99.90;;;;;;5046332;28;20283;-76
2024/04/06 03:28:34;;;;;;;;;;;10.80;99.90;;;;;;5046964;28;19916;-76
2024/04/06 03:30:59;;;;;;;;;;;10.80;99.90;;;;;;5049440;28;20278;-76
2024/04/06 03:33:25;;;;;;;;;;;10.90;99.90;;;;;;5045917;28;19960;-76
2024/04/06 03:35:50;;;;;;;;;;;10.80;99.90;;;;;;5044290;28;19979;-76
2024/04/06 03:38:16;;;;;;;;;;;10.80;99.90;;;;;;5047768;28;19916;-75
2024/04/06 03:40:42;;;;;;;;;;;10.80;99.90;;;;;;5047073;28;20330;-76
2024/04/06 03:43:07;;;;;;;;;;;10.80;99.90;;;;;;5046226;28;19921;-75
2024/04/06 03:45:35;;;;;;;;;;;10.80;99.90;;;;;;5043622;28;20074;-76
2024/04/06 03:48:02;;;;;;;;;;;10.80;99.90;;;;;;5028278;28;19927;-75
2024/04/06 03:50:27;;;;;;;;;;;10.80;99.90;;;;;;5046779;28;19932;-75
2024/04/06 03:52:54;;;;;;;;;;;10.80;99.90;;;;;;5047039;28;19917;-76
2024/04/06 03:55:19;;;;;;;;;;;10.80;99.90;;;;;;5030597;28;19928;-76
2024/04/06 03:57:45;;;;;;;;;;;10.80;99.90;;;;;;5048525;28;20393;-76
2024/04/06 04:00:13;;;;;;;;;;;10.80;99.90;;;;;;5046281;28;19916;-76
2024/04/06 04:02:39;;;;;;;;;;;10.80;99.90;;;;;;5048876;28;19921;-76
2024/04/06 04:05:05;;;;;;;;;;;10.70;99.90;;;;;;5047531;28;19924;-76
2024/04/06 04:07:32;;;;;;;;;;;10.70;99.90;;;;;;5044399;28;19924;-75
2024/04/06 04:10:01;;;;;;;;;;;11.00;99.90;;;;;;5044155;28;20059;-76
2024/04/06 04:12:29;;;;;;;;;;;10.70;99.90;;;;;;5045491;28;19923;-75
2024/04/06 04:14:57;;;;;;;;;;;10.80;99.90;;;;;;5043339;28;19982;-75
2024/04/06 04:17:23;;;;;;;;;;;10.80;99.90;;;;;;5048681;28;20176;-74
2024/04/06 04:19:48;;;;;;;;;;;10.90;99.90;;;;;;5045346;28;19925;-76
2024/04/06 04:22:14;;;;;;;;;;;11.00;99.90;;;;;;5042280;28;19931;-76
2024/04/06 04:24:40;;;;;;;;;;;11.10;99.90;;;;;;5046901;28;20374;-75
2024/04/06 04:27:06;;;;;;;;;;;11.20;99.90;;;;;;5045288;28;19943;-75
2024/04/06 04:29:32;;;;;;;;;;;11.20;99.90;;;;;;5028565;28;19917;-76
2024/04/06 04:31:57;;;;;;;;;;;11.20;99.90;;;;;;5048738;28;19916;-76
2024/04/06 04:34:23;;;;;;;;;;;11.30;99.90;;;;;;5045396;28;19931;-76
2024/04/06 04:36:48;;;;;;;;;;;11.30;99.90;;;;;;5045498;28;20434;-76
2024/04/06 04:39:14;;;;;;;;;;;11.30;99.90;;;;;;5045500;28;19916;-76
2024/04/06 04:41:39;;;;;;;;;;;11.40;99.90;;;;;;5043114;28;20436;-75
2024/04/06 04:44:05;;;;;;;;;;;11.40;99.90;;;;;;5029623;28;19925;-76
2024/04/06 04:46:31;;;;;;;;;;;11.50;99.90;;;;;;5046760;28;19925;-76
2024/04/06 04:48:59;;;;;;;;;;;11.50;99.90;;;;;;5045892;28;19935;-76
2024/04/06 04:51:25;;;;;;;;;;;11.50;99.90;;;;;;5041855;28;19917;-76
2024/04/06 04:53:51;;;;;;;;;;;11.60;99.90;;;;;;5043300;28;19978;-75
2024/04/06 04:56:16;;;;;;;;;;;11.50;99.90;;;;;;5042504;28;19955;-75
2024/04/06 04:58:42;;;;;;;;;;;11.60;99.90;;;;;;5044720;28;19924;-77
2024/04/06 05:01:08;;;;;;;;;;;11.60;99.90;;;;;;5045484;28;19925;-76
2024/04/06 05:03:33;;;;;;;;;;;11.70;99.90;;;;;;5045069;28;20366;-75
2024/04/06 05:05:59;;;;;;;;;;;11.60;99.90;;;;;;5029852;28;19964;-76
2024/04/06 05:08:25;;;;;;;;;;;11.60;99.90;;;;;;5045595;28;19955;-76
2024/04/06 05:10:51;;;;;;;;;;;11.60;99.90;;;;;;5047239;28;20373;-77
2024/04/06 05:13:16;;;;;;;;;;;11.50;99.90;;;;;;5046453;28;19931;-77
2024/04/06 05:15:49;;;;;;;;;;;11.50;99.90;;;;;;5046724;28;19958;-77
2024/04/06 05:18:14;;;;;;;;;;;11.40;99.90;;;;;;5041366;28;19931;-76
2024/04/06 05:20:47;;;;;;;;;;;11.30;99.90;;;;;;5062107;28;20114;-75
2024/04/06 05:23:13;;;;;;;;;;;11.30;99.90;;;;;;5046346;28;19925;-75
2024/04/06 05:25:38;;;;;;;;;;;11.20;99.90;;;;;;5046279;28;19927;-76
2024/04/06 05:28:04;;;;;;;;;;;11.20;99.90;;;;;;5045192;28;19923;-76
2024/04/06 05:30:30;;;;;;;;;;;11.30;99.90;;;;;;5046952;28;19943;-77
2024/04/06 05:32:55;;;;;;;;;;;11.30;99.90;;;;;;5045126;28;19925;-76
2024/04/06 05:35:21;;;;;;;;;;;11.40;99.90;;;;;;5044877;28;19920;-75
2024/04/06 05:37:46;;;;;;;;;;;11.50;99.90;;;;;;5043554;28;19928;-77
2024/04/06 05:40:12;;;;;;;;;;;11.60;99.90;;;;;;5043961;28;20160;-76
2024/04/06 05:42:37;;;;;;;;;;;11.60;99.90;;;;;;5044077;28;19916;-77
2024/04/06 05:45:03;;;;;;;;;;;11.70;99.90;;;;;;5046123;28;19982;-77
2024/04/06 05:47:29;;;;;;;;;;;11.80;99.90;;;;;;5048674;28;19921;-77
2024/04/06 05:49:55;;;;;;;;;;;11.80;99.90;;;;;;5049923;28;19920;-77
2024/04/06 05:52:20;;;;;;;;;;;11.90;99.90;;;;;;5032371;28;19921;-78
2024/04/06 05:54:46;;;;;;;;;;;11.90;99.90;;;;;;5040944;28;20389;-77
2024/04/06 05:57:11;;;;;;;;;;;11.90;99.90;;;;;;5045595;28;20393;-77
2024/04/06 05:59:37;;;;;;;;;;;12.00;99.90;;;;;;5048587;28;19956;-76
2024/04/06 06:02:03;;;;;;;;;;;11.90;99.90;;;;;;5044364;28;19996;-76
2024/04/06 06:04:29;;;;;;;;;;;11.90;99.90;;;;;;5045760;28;19939;-74
2024/04/06 06:06:54;;;;;;;;;;;12.00;99.90;;;;;;5044398;28;20362;-75
2024/04/06 06:09:20;;;;;;;;;;;12.00;99.90;;;;;;5046623;28;19921;-75
2024/04/06 06:11:46;;;;;;;;;;;12.00;99.90;;;;;;5061164;28;19931;-75
2024/04/06 06:14:12;;;;;;;;;;;12.10;99.90;;;;;;5044593;28;20294;-81
2024/04/06 06:16:37;;;;;;;;;;;12.10;99.90;;;;;;5046979;28;20276;-80
2024/04/06 06:19:03;;;;;;;;;;;12.10;99.90;;;;;;5043669;28;19975;-72
2024/04/06 06:21:29;;;;;;;;;;;12.20;99.90;;;;;;5044770;28;19928;-77
2024/04/06 06:23:56;;;;;;;;;;;12.30;99.90;;;;;;5044500;28;19917;-74
2024/04/06 06:26:22;;;;;;;;;;;12.30;99.90;;;;;;5042325;28;19930;-73
2024/04/06 06:28:47;;;;;;;;;;;12.40;99.90;;;;;;5042727;28;19924;-73
2024/04/06 06:31:13;;;;;;;;;;;12.40;99.90;;;;;;5046062;28;19932;-73
2024/04/06 06:33:38;;;;;;;;;;;12.50;99.90;;;;;;5049147;28;19916;-75
2024/04/06 06:36:04;;;;;;;;;;;12.60;99.90;;;;;;5028405;28;19966;-73
2024/04/06 06:38:30;;;;;;;;;;;12.60;99.90;;;;;;5040257;28;19960;-74
2024/04/06 06:40:55;;;;;;;;;;;12.60;99.90;;;;;;5024130;28;19924;-73
2024/04/06 06:43:21;;;;;;;;;;;12.60;99.90;;;;;;5046975;28;20394;-75
2024/04/06 06:45:46;;;;;;;;;;;12.60;99.90;;;;;;5047070;28;19996;-85
2024/04/06 06:48:12;;;;;;;;;;;12.60;99.90;;;;;;5043849;28;19932;-85
2024/04/06 06:50:38;;;;;;;;;;;12.60;99.90;;;;;;5014049;28;19924;-84
2024/04/06 06:53:04;;;;;;;;;;;12.70;99.90;;;;;;5027761;28;20297;-79
2024/04/06 06:55:29;;;;;;;;;;;12.90;99.90;;;;;;5043823;28;20487;-79
2024/04/06 06:57:55;;;;;;;;;;;13.10;99.90;;;;;;5041789;28;20015;-80
2024/04/06 07:00:20;;;;;;;;;;;13.40;99.90;;;;;;5045290;28;20023;-80
2024/04/06 07:02:46;;;;;;;;;;;13.60;99.90;;;;;;5046692;28;19916;-80
2024/04/06 07:05:12;;;;;;;;;;;13.70;99.90;;;;;;5045916;28;20447;-87
2024/04/06 07:07:38;;;;;;;;;;;13.90;99.90;;;;;;5048367;28;19920;-88
2024/04/06 07:10:04;;;;;;;;;;;;;;;;;;5032789;28;19925;-86
2024/04/06 07:12:31;;;;;;;;;;;;;;;;;;5030135;28;19978;-86
2024/04/06 07:14:57;;;;;;;;;;;;;;;;;;5032490;28;19929;-88
2024/04/06 07:17:23;;;;;;;;;;;;;;;;;;5047582;28;19928;-86
2024/04/06 07:19:49;;;;;;;;;;;14.40;99.90;;;;;;5031253;28;20048;-86
2024/04/06 07:22:15;;;;;;;;;;;14.50;99.90;;;;;;5043443;28;20007;-87
2024/04/06 07:24:42;;;;;;;;;;;14.70;99.90;;;;;;5034436;28;20308;-87
2024/04/06 07:27:08;;;;;;;;;;;15.20;99.90;;;;;;5031174;28;19923;-82
2024/04/06 07:29:33;;;;;;;;;;;14.90;99.90;;;;;;5046608;28;20007;-81
2024/04/06 07:31:59;;;;;;;;;;;15.10;99.90;;;;;;5047185;28;20027;-82
2024/04/06 07:34:24;;;;;;;;;;;15.20;99.90;;;;;;5045221;28;19925;-80
2024/04/06 07:36:50;;;;;;;;;;;15.40;99.90;;;;;;5047241;28;19943;-80
2024/04/06 07:39:16;;;;;;;;;;;15.60;99.90;;;;;;5046354;28;19925;-80
2024/04/06 07:41:41;;;;;;;;;;;15.80;99.90;;;;;;5047292;28;20501;-81
2024/04/06 07:44:07;;;;;;;;;;;16.00;99.90;;;;;;5043970;28;19983;-80
2024/04/06 07:46:33;;;;;;;;;;;16.00;99.90;;;;;;5045706;28;19931;-82
2024/04/06 07:48:58;;;;;;;;;;;16.00;99.90;;;;;;5042438;28;19928;-81
2024/04/06 07:51:24;;;;;;;;;;;16.00;99.90;;;;;;5044357;28;19924;-81
2024/04/06 07:53:49;;;;;;;;;;;15.90;99.90;;;;;;5043243;28;19928;-81
2024/04/06 07:56:15;;;;;;;;;;;15.90;99.90;;;;;;5047947;28;19925;-82
2024/04/06 07:58:41;;;;;;;;;;;15.90;99.90;;;;;;5047196;28;20027;-81
2024/04/06 08:01:06;;;;;;;;;;;15.90;99.90;;;;;;5048407;28;19924;-80
2024/04/06 08:03:32;;;;;;;;;;;16.00;99.90;;;;;;5029470;28;19916;-80
2024/04/06 08:06:01;;;;;;;;;;;16.30;99.90;;;;;;5047142;28;19986;-85
2024/04/06 08:08:27;;;;;;;;;;;16.30;99.90;;;;;;5030930;28;20301;-83
2024/04/06 08:10:53;;;;;;;;;;;16.50;99.90;;;;;;5051294;28;19925;-80
2024/04/06 08:13:18;;;;;;;;;;;16.60;99.90;;;;;;5044336;28;19924;-81
2024/04/06 08:15:47;;;;;;;;;;;16.80;99.90;;;;;;5045927;28;19920;-82
2024/04/06 08:18:13;;;;;;;;;;;17.00;99.90;;;;;;5026734;28;19921;-82
2024/04/06 08:20:39;;;;;;;;;;;17.10;99.90;;;;;;5022673;28;19916;-82
2024/04/06 08:23:04;;;;;;;;;;;17.20;99.90;;;;;;5044362;28;19917;-80
2024/04/06 08:25:30;;;;;;;;;;;17.20;99.90;;;;;;5048220;28;20370;-81
2024/04/06 08:27:55;;;;;;;;;;;17.30;99.90;;;;;;5045366;28;19963;-82
2024/04/06 08:30:22;;;;;;;;;;;17.40;99.90;;;;;;5014093;28;19924;-81
2024/04/06 08:32:54;;;;;;;;;;;17.40;99.90;;;;;;5027667;28;19924;-81
2024/04/06 08:35:20;;;;;;;;;;;17.50;99.90;;;;;;5044295;28;19921;-82
2024/04/06 08:37:46;;;;;;;;;;;17.60;99.90;;;;;;5046154;28;19928;-82
2024/04/06 08:40:12;;;;;;;;;;;17.80;99.90;;;;;;5028729;28;19995;-81
2024/04/06 08:42:40;;;;;;;;;;;18.00;99.90;;;;;;5046952;28;20046;-81
2024/04/06 08:45:06;;;;;;;;;;;18.30;99.90;;;;;;5045677;28;20349;-80
2024/04/06 08:47:32;;;;;;;;;;;18.50;99.90;;;;;;5042998;28;19959;-82
2024/04/06 08:50:00;;;;;;;;;;;18.60;99.90;;;;;;5057628;28;19917;-80
2024/04/06 08:52:26;;;;;;;;;;;19.20;99.90;;;;;;5039555;28;19960;-82
2024/04/06 08:54:52;;;;;;;;;;;18.60;99.90;;;;;;5042845;28;19924;-82
2024/04/06 08:57:18;;;;;;;;;;;18.60;99.90;;;;;;5029032;28;20060;-82
2024/04/06 08:59:45;;;;;;;;;;;18.60;99.90;;;;;;5027977;28;19952;-79
2024/04/06 09:02:10;;;;;;;;;;;18.20;99.90;;;;;;5012935;28;20412;-82
2024/04/06 09:04:36;;;;;;;;;;;18.70;99.90;;;;;;5043322;28;20003;-81
2024/04/06 09:07:02;;;;;;;;;;;18.70;99.90;;;;;;5044342;28;19928;-81
2024/04/06 09:09:27;;;;;;;;;;;18.70;99.90;;;;;;5040188;28;20007;-82
2024/04/06 09:11:53;;;;;;;;;;;18.70;99.90;;;;;;5044906;28;19944;-82
2024/04/06 09:14:18;;;;;;;;;;;18.80;99.90;;;;;;5041590;28;20440;-81
2024/04/06 09:16:44;;;;;;;;;;;18.90;99.90;;;;;;5045211;28;19982;-80
2024/04/06 09:19:10;;;;;;;;;;;19.00;99.90;;;;;;5042490;28;19921;-81
2024/04/06 09:21:36;;;;;;;;;;;19.20;99.90;;;;;;5043208;28;19986;-81
2024/04/06 09:24:03;;;;;;;;;;;19.30;99.90;;;;;;5043162;28;19923;-82
2024/04/06 09:26:33;;;;;;;;;;;19.40;99.90;;;;;;5047867;28;20014;-87
2024/04/06 09:28:59;;;;;;;;;;;19.40;99.90;;;;;;5053702;28;19967;-89
2024/04/06 09:31:26;;;;;;;;;;;19.40;99.90;;;;;;5015310;28;19924;-87
2024/04/06 09:33:52;;;;;;;;;;;19.30;99.90;;;;;;5040112;28;20003;-88
2024/04/06 09:36:19;;;;;;;;;;;19.30;99.90;;;;;;5049061;28;19920;-87
2024/04/06 09:38:46;;;;;;;;;;;19.30;99.90;;;;;;5044413;28;19924;-86
2024/04/06 09:41:14;;;;;;;;;;;19.40;99.90;;;;;;5046539;28;19964;-85
2024/04/06 09:43:39;;;;;;;;;;;19.50;99.90;;;;;;5048860;28;19917;-86
2024/04/06 09:46:06;;;;;;;;;;;19.50;99.90;;;;;;5024480;28;19925;-86
2024/04/06 09:48:31;;;;;;;;;;;19.60;99.90;;;;;;5012426;28;20305;-86
2024/04/06 09:50:59;;;;;;;;;;;19.50;99.90;;;;;;5048881;28;19923;-85
2024/04/06 09:53:25;;;;;;;;;;;19.70;99.90;;;;;;5048032;28;19921;-86
2024/04/06 09:55:51;;;;;;;;;;;19.70;99.90;;;;;;5011720;28;19924;-85
2024/04/06 09:58:26;;;;;;;;;;;19.80;99.90;;;;;;5047065;28;19916;-87
2024/04/06 10:00:53;;;;;;;;;;;19.90;99.90;;;;;;5028650;28;20100;-87
2024/04/06 10:03:20;;;;;;;;;;;20.00;99.90;;;;;;5045905;28;21256;-85
2024/04/06 10:05:46;;;;;;;;;;;20.10;99.90;;;;;;5031624;28;20379;-85
2024/04/06 10:08:13;;;;;;;;;;;20.10;99.90;;;;;;5013421;28;19917;-86
2024/04/06 10:10:46;;;;;;;;;;;20.20;99.90;;;;;;5028618;28;19921;-85
2024/04/06 10:13:18;;;;;;;;;;;20.20;99.90;;;;;;5044100;28;19924;-86
2024/04/06 10:15:44;;;;;;;;;;;20.30;99.90;;;;;;5029705;28;19925;-87
2024/04/06 10:18:10;;;;;;;;;;;20.40;99.90;;;;;;5024236;28;19917;-89
2024/04/06 10:20:35;;;;;;;;;;;20.50;99.90;;;;;;5047260;28;19916;-87
2024/04/06 10:23:01;;;;;;;;;;;20.50;99.90;;;;;;5030089;28;19917;-86
2024/04/06 10:25:36;;;;;;;;;;;20.60;99.90;;;;;;5045449;28;19917;-86
2024/04/06 10:28:01;;;;;;;;;;;20.70;99.90;;;;;;5048753;28;19916;-85
2024/04/06 10:30:27;;;;;;;;;;;20.80;99.90;;;;;;5062418;28;19916;-84
2024/04/06 10:32:53;;;;;;;;;;;21.00;99.90;;;;;;5034778;28;19925;-86
2024/04/06 10:35:19;;;;;;;;;;;21.10;99.90;;;;;;5032267;28;20062;-81
2024/04/06 10:37:46;;;;;;;;;;;21.20;99.90;;;;;;5046391;28;19921;-80
2024/04/06 10:40:13;;;;;;;;;;;21.30;99.90;;;;;;5044218;28;19975;-82
2024/04/06 10:42:39;;;;;;;;;;;21.30;99.90;;;;;;5027765;28;19917;-81
2024/04/06 10:45:05;;;;;;;;;;;21.40;99.90;;;;;;5031078;28;20689;-81
2024/04/06 10:47:31;;;;;;;;;;;21.50;99.90;;;;;;5042923;28;20076;-81
2024/04/06 10:49:56;;;;;;;;;;;21.70;99.90;;;;;;5042673;28;19921;-82
2024/04/06 10:52:22;;;;;;;;;;;21.80;99.90;;;;;;5040791;28;19921;-80
2024/04/06 10:54:49;;;;;;;;;;;22.00;99.90;;;;;;5014552;28;20023;-80
2024/04/06 10:57:15;;;;;;;;;;;22.00;99.90;;;;;;5049762;28;20381;-81
2024/04/06 10:59:41;;;;;;;;;;;22.10;99.90;;;;;;5048253;28;19931;-80
2024/04/06 11:02:07;;;;;;;;;;;22.20;99.90;;;;;;5046364;28;19925;-82
2024/04/06 11:04:37;;;;;;;;;;;22.30;99.90;;;;;;5044894;28;19961;-81
2024/04/06 11:07:03;;;;;;;;;;;22.50;99.90;;;;;;5048158;28;19932;-81
2024/04/06 11:09:30;;;;;;;;;;;22.70;99.90;;;;;;5030482;28;19923;-80
2024/04/06 11:11:56;;;;;;;;;;;22.70;99.90;;;;;;5030795;28;19920;-81
2024/04/06 11:14:25;;;;;;;;;;;22.90;99.90;;;;;;5063309;28;19935;-79
2024/04/06 11:16:52;;;;;;;;;;;22.20;99.90;;;;;;5045790;28;19956;-80
2024/04/06 11:19:17;;;;;;;;;;;23.00;99.90;;;;;;5044032;28;20354;-81
2024/04/06 11:21:43;;;;;;;;;;;23.00;99.90;;;;;;5048184;28;20460;-82
2024/04/06 11:24:09;;;;;;;;;;;23.10;99.90;;;;;;5038335;28;19939;-82
2024/04/06 11:26:36;;;;;;;;;;;23.20;99.90;;;;;;5047257;28;19970;-81
2024/04/06 11:29:02;;;;;;;;;;;23.30;99.90;;;;;;5047160;28;19920;-82
2024/04/06 11:31:28;;;;;;;;;;;23.40;99.90;;;;;;5043556;28;19924;-79
2024/04/06 11:33:54;;;;;;;;;;;23.50;99.90;;;;;;5044471;28;19929;-81
2024/04/06 11:36:20;;;;;;;;;;;23.60;99.90;;;;;;5046927;28;20341;-82
2024/04/06 11:38:46;;;;;;;;;;;23.60;99.90;;;;;;5026381;28;19970;-83
2024/04/06 11:41:11;;;;;;;;;;;23.60;99.90;;;;;;5029156;28;19966;-79
2024/04/06 11:43:37;;;;;;;;;;;23.70;99.90;;;;;;5042563;28;19978;-80
2024/04/06 11:46:03;;;;;;;;;;;23.70;99.90;;;;;;5045912;28;20015;-84
2024/04/06 11:48:28;;;;;;;;;;;23.70;99.90;;;;;;5044082;28;19925;-81
2024/04/06 11:50:54;;;;;;;;;;;23.70;99.90;;;;;;5047585;28;19978;-76
2024/04/06 11:53:20;;;;;;;;;;;23.70;99.90;;;;;;5039316;28;19931;-76
2024/04/06 11:55:46;;;;;;;;;;;23.70;99.90;;;;;;5044353;28;20038;-81
2024/04/06 11:58:12;;;;;;;;;;;23.70;99.90;;;;;;5044545;28;19920;-78
2024/04/06 12:00:37;;;;;;;;;;;23.70;99.90;;;;;;5049458;28;20313;-89
2024/04/06 12:03:03;;;;;;;;;;;23.80;99.90;;;;;;5054948;28;19964;-86
2024/04/06 12:05:29;;;;;;;;;;;23.80;99.90;;;;;;5049120;28;19917;-77
2024/04/06 12:07:54;;;;;;;;;;;23.80;99.90;;;;;;5043999;28;20321;-76
2024/04/06 12:10:20;;;;;;;;;;;23.80;99.90;;;;;;5045541;28;19917;-77
2024/04/06 12:12:45;;;;;;;;;;;23.90;99.90;;;;;;5045905;28;20000;-76
2024/04/06 12:15:11;;;;;;;;;;;23.90;99.90;;;;;;5029843;28;20405;-76
2024/04/06 12:17:37;;;;;;;;;;;23.90;99.90;;;;;;5048010;28;19921;-80
2024/04/06 12:20:03;;;;;;;;;;;23.90;99.90;;;;;;5046365;28;19927;-88
2024/04/06 12:22:30;;;;;;;;;;;24.00;99.90;;;;;;5044762;28;19932;-78
2024/04/06 12:24:55;;;;;;;;;;;24.10;99.90;;;;;;5042817;28;20355;-77
2024/04/06 12:27:22;;;;;;;;;;;24.10;99.90;;;;;;5043570;28;20046;-78
2024/04/06 12:29:47;;;;;;;;;;;24.20;99.90;;;;;;5045465;28;20356;-78
2024/04/06 12:32:13;;;;;;;;;;;24.30;99.90;;;;;;5043666;28;19926;-80
2024/04/06 12:34:39;;;;;;;;;;;24.30;99.90;;;;;;5045036;28;20394;-79
2024/04/06 12:37:09;;;;;;;;;;;24.40;99.90;;;;;;5044626;28;20071;-78
2024/04/06 12:39:37;;;;;;;;;;;24.40;99.90;;;;;;5046485;28;19978;-78
2024/04/06 12:42:03;;;;;;;;;;;24.60;99.90;;;;;;5043067;28;19924;-78
2024/04/06 12:44:33;;;;;;;;;;;24.70;99.90;;;;;;5044730;28;19939;-78
2024/04/06 12:46:59;;;;;;;;;;;24.90;99.90;;;;;;5025906;28;19920;-77
2024/04/06 12:49:29;;;;;;;;;;;24.90;99.90;;;;;;5043545;28;19920;-78
2024/04/06 12:51:55;;;;;;;;;;;24.90;99.90;;;;;;5058574;28;19947;-78
2024/04/06 12:54:21;;;;;;;;;;;24.90;99.90;;;;;;5040867;28;20497;-78
2024/04/06 12:59:32;;;;;;;;;;;24.90;99.90;;;;;;5045375;28;19964;-77
2024/04/06 13:01:58;;;;;;;;;;;25.00;99.90;;;;;;5044117;28;19920;-79
2024/04/06 13:04:23;;;;;;;;;;;25.00;99.90;;;;;;5042689;28;20043;-78
2024/04/06 13:06:49;;;;;;;;;;;25.00;99.90;;;;;;5041147;28;19916;-79
2024/04/06 13:09:15;;;;;;;;;;;25.00;99.90;;;;;;5009453;28;19966;-79
2024/04/06 13:11:41;;;;;;;;;;;24.90;99.90;;;;;;5042286;28;20007;-78
2024/04/06 13:14:07;;;;;;;;;;;24.90;99.90;;;;;;5048690;28;19924;-80
2024/04/06 13:16:32;;;;;;;;;;;25.00;99.90;;;;;;5042278;28;19916;-77
2024/04/06 13:18:58;;;;;;;;;;;24.90;99.90;;;;;;5043816;28;19974;-75
2024/04/06 13:21:24;;;;;;;;;;;24.90;99.90;;;;;;5039991;28;19921;-75
2024/04/06 13:23:50;;;;;;;;;;;25.00;99.90;;;;;;5041098;28;19978;-79
2024/04/06 13:26:15;;;;;;;;;;;25.00;99.90;;;;;;5042133;28;19971;-74
2024/04/06 13:28:41;;;;;;;;;;;25.20;99.90;;;;;;5042324;28;19928;-74
2024/04/06 13:31:07;;;;;;;;;;;25.20;99.90;;;;;;5043918;28;20377;-74
2024/04/06 13:33:34;;;;;;;;;;;25.20;99.90;;;;;;5047610;28;19947;-77
2024/04/06 13:36:02;;;;;;;;;;;25.20;99.90;;;;;;5050299;28;20294;-77
2024/04/06 13:38:27;;;;;;;;;;;25.20;99.90;;;;;;5046498;28;19970;-77
2024/04/06 13:40:53;;;;;;;;;;;25.20;99.90;;;;;;5045617;28;19977;-77
2024/04/06 13:43:19;;;;;;;;;;;25.30;99.90;;;;;;5065691;28;19921;-77
2024/04/06 13:45:44;;;;;;;;;;;25.30;99.90;;;;;;5047303;28;19964;-78
2024/04/06 13:48:13;;;;;;;;;;;25.40;99.90;;;;;;5051389;28;19921;-78
2024/04/06 13:50:39;;;;;;;;;;;25.40;99.90;;;;;;5046308;28;19928;-77
2024/04/06 13:53:06;;;;;;;;;;;25.50;99.90;;;;;;5042127;28;20299;-78
2024/04/06 13:55:32;;;;;;;;;;;25.70;99.90;;;;;;5046439;28;19935;-82
2024/04/06 13:57:58;;;;;;;;;;;25.90;99.90;;;;;;5046329;28;20019;-77
2024/04/06 14:00:24;;;;;;;;;;;26.20;99.90;;;;;;5045093;28;20547;-76
2024/04/06 14:02:50;;;;;;;;;;;26.60;99.90;;;;;;5029993;28;20048;-76
2024/04/06 14:05:16;;;;;;;;;;;26.80;99.90;;;;;;5042450;28;20164;-77
2024/04/06 14:07:42;;;;;;;;;;;27.10;99.90;;;;;;5041866;28;19924;-77
2024/04/06 14:10:07;;;;;;;;;;;27.40;99.90;;;;;;5048872;28;19982;-76
2024/04/06 14:12:33;;;;;;;;;;;27.40;99.30;;;;;;5049081;28;20421;-76
2024/04/06 14:14:59;;;;;;;;;;;27.20;99.90;;;;;;5044997;28;19980;-78